Meredithville, Virginia
Current Conditions -  °F | °C
As of 4:15 AM on Monday 24 Nov 2014 (Local Time) from KLVL Reporting Station
Broken Clouds Broken Clouds  
Wind Chill: 64°   Ceiling: 4400
Heat Index: 64°   Visibility: 10mi
Dew Point: 63°   Wind: 9mph
Humidity: 95%   Direction: 190°S
Pressure: 29.75"   Gusts: NA
Location:  36.81°N, 77.96°W
Report Text: KLVL 240915Z AUTO 19008KT 10SM SCT014 SCT026 BKN044 18/17 A2975 RMK AO1 T01800172
Loading
Personal Weather Stations






























Interactive Weather Map New forecast layout! Learn more

10-Day Weather Forecast

Advertisements
Track Severe Weather on mobile